Time;durP1;ratioP1;P1;durP2;ratioP2;P2;SDS_P1;SDS_P2;PMS_P1;PMS_P2;Temp;Humidity;BMP_temperature;BMP_pressure;BME280_temperature;BME280_humidity;BME280_pressure;Samples;Min_cycle;Max_cycle;Signal;HPM_P1;HPM_P2
2024/03/19 00:01:44;;;;;;;29.50;8.32;;;;;;;7.37;100.00;101808.59;5095087;28;20492;-76
2024/03/19 00:04:09;;;;;;;27.15;7.45;;;;;;;7.43;100.00;101810.00;5095557;28;20442;-76
2024/03/19 00:06:35;;;;;;;24.13;6.95;;;;;;;7.49;100.00;101806.13;5094714;28;20042;-76
2024/03/19 00:09:01;;;;;;;25.25;7.13;;;;;;;7.53;100.00;101808.50;5095316;28;20020;-76
2024/03/19 00:11:26;;;;;;;23.02;7.10;;;;;;;7.58;100.00;101800.25;5094922;28;20094;-76
2024/03/19 00:13:52;;;;;;;20.58;6.45;;;;;;;7.63;100.00;101805.25;5095310;28;20100;-76
2024/03/19 00:16:18;;;;;;;16.70;6.38;;;;;;;7.66;100.00;101797.13;5095185;28;20077;-76
2024/03/19 00:18:43;;;;;;;22.55;6.85;;;;;;;7.71;100.00;101801.19;5076724;28;20035;-76
2024/03/19 00:21:12;;;;;;;16.58;6.25;;;;;;;7.76;100.00;101798.25;5095329;28;20409;-76
2024/03/19 00:23:38;;;;;;;22.58;7.53;;;;;;;7.77;100.00;101792.84;5095055;28;20047;-76
2024/03/19 00:26:05;;;;;;;20.27;6.45;;;;;;;7.80;100.00;101789.16;5094769;28;20372;-76
2024/03/19 00:28:31;;;;;;;13.85;6.03;;;;;;;7.84;100.00;101800.44;5094678;28;20345;-76
2024/03/19 00:30:56;;;;;;;24.27;7.03;;;;;;;7.86;100.00;101791.41;5094640;28;20027;-76
2024/03/19 00:33:22;;;;;;;24.45;6.57;;;;;;;7.89;100.00;101790.38;5094677;28;20099;-76
2024/03/19 00:35:47;;;;;;;11.85;5.80;;;;;;;7.90;100.00;101787.63;5094820;28;20034;-76
2024/03/19 00:38:13;;;;;;;15.68;6.57;;;;;;;7.92;100.00;101792.81;5095014;28;20024;-76
2024/03/19 00:40:39;;;;;;;21.42;6.28;;;;;;;7.95;100.00;101784.69;5076385;28;20126;-75
2024/03/19 00:43:04;;;;;;;21.50;6.32;;;;;;;7.94;100.00;101781.19;5094419;28;20110;-76
2024/03/19 00:45:30;;;;;;;15.40;6.95;;;;;;;8.00;100.00;101781.72;5094500;28;20024;-76
2024/03/19 00:47:55;;;;;;;17.92;6.38;;;;;;;8.03;100.00;101781.53;5094646;28;20023;-76
2024/03/19 00:50:21;;;;;;;14.88;6.65;;;;;;;8.06;100.00;101776.91;5094546;28;20411;-75
2024/03/19 00:52:46;;;;;;;22.15;6.45;;;;;;;8.10;100.00;101774.88;5094268;28;20375;-76
2024/03/19 00:55:12;;;;;;;15.82;6.35;;;;;;;8.09;100.00;101778.47;5076503;28;20031;-76
2024/03/19 00:57:38;;;;;;;19.88;6.28;;;;;;;8.11;100.00;101774.78;5094468;28;20072;-76
2024/03/19 01:00:16;;;;;;;15.18;6.28;;;;;;;8.14;100.00;101770.25;5094162;28;20020;-76
2024/03/19 01:02:43;;;;;;;15.23;5.80;;;;;;;8.17;100.00;101768.22;5094297;28;20116;-76
2024/03/19 01:05:12;;;;;;;15.70;6.35;;;;;;;8.21;100.00;101771.53;5094067;28;20023;-76
2024/03/19 01:07:39;;;;;;;14.10;5.70;;;;;;;8.23;100.00;101766.97;5094239;28;20073;-75
2024/03/19 01:10:07;;;;;;;13.98;6.22;;;;;;;8.24;100.00;101766.00;5075953;28;20016;-75
2024/03/19 01:12:33;;;;;;;13.93;5.78;;;;;;;8.23;100.00;101765.19;5094404;28;20108;-76
2024/03/19 01:14:58;;;;;;;16.15;5.50;;;;;;;8.25;100.00;101763.25;5094022;28;20020;-76
2024/03/19 01:17:23;;;;;;;12.18;5.22;;;;;;;8.27;100.00;101765.81;5093820;28;20115;-76
2024/03/19 01:19:49;;;;;;;11.32;5.30;;;;;;;8.28;100.00;101768.38;5093732;28;20074;-76
2024/03/19 01:22:14;;;;;;;17.35;5.72;;;;;;;8.30;100.00;101763.81;5093894;28;20070;-75
2024/03/19 01:24:40;;;;;;;11.77;4.93;;;;;;;8.32;100.00;101769.03;5093570;28;20049;-75
2024/03/19 01:27:07;;;;;;;15.25;4.80;;;;;;;8.36;100.00;101767.00;5093798;28;20047;-76
2024/03/19 01:29:32;;;;;;;16.25;4.75;;;;;;;8.39;100.00;101762.38;5093698;28;20028;-76
2024/03/19 01:31:58;;;;;;;14.52;5.07;;;;;;;8.44;100.00;101767.38;5093696;28;20477;-76
2024/03/19 01:34:24;;;;;;;16.30;4.95;;;;;;;8.48;100.00;101766.25;5093506;28;20324;-75
2024/03/19 01:36:49;;;;;;;10.57;5.38;;;;;;;8.49;100.00;101767.09;5093511;28;20032;-75
2024/03/19 01:39:14;;;;;;;9.02;4.00;;;;;;;8.51;100.00;101770.47;5093676;28;20368;-76
2024/03/19 01:41:40;;;;;;;9.70;4.35;;;;;;;8.54;100.00;101764.97;5093340;28;20062;-75
2024/03/19 01:44:07;;;;;;;10.13;4.75;;;;;;;8.58;100.00;101764.69;5093502;28;20108;-75
2024/03/19 01:46:32;;;;;;;14.77;4.80;;;;;;;8.59;100.00;101768.16;5075130;28;20027;-75
2024/03/19 01:48:59;;;;;;;10.57;4.25;;;;;;;8.62;100.00;101762.66;5093225;28;20024;-76
2024/03/19 01:51:26;;;;;;;12.82;4.13;;;;;;;8.63;100.00;101761.72;5092811;28;20024;-75
2024/03/19 01:53:56;;;;;;;9.68;3.92;;;;;;;8.57;100.00;101759.44;5093280;28;20078;-75
2024/03/19 01:56:22;;;;;;;8.85;3.90;;;;;;;8.44;100.00;101759.44;5093117;28;20020;-75
2024/03/19 01:58:48;;;;;;;10.73;4.20;;;;;;;8.34;100.00;101760.97;5093713;28;20042;-75
2024/03/19 02:01:15;;;;;;;13.00;4.15;;;;;;;8.25;100.00;101759.78;5092984;28;20074;-75
2024/03/19 02:03:45;;;;;;;7.80;3.67;;;;;;;8.14;100.00;101759.66;5075244;28;20062;-75
2024/03/19 02:06:14;;;;;;;7.53;3.78;;;;;;;8.03;100.00;101762.97;5092961;28;20093;-75
2024/03/19 02:08:56;;;;;;;13.05;4.30;;;;;;;7.94;100.00;101761.75;5093041;28;20035;-76
2024/03/19 02:11:22;;;;;;;15.50;4.43;;;;;;;7.84;100.00;101761.53;5092847;28;20020;-76
2024/03/19 02:13:47;;;;;;;12.68;4.55;;;;;;;7.79;100.00;101755.66;5093234;28;20023;-74
2024/03/19 02:16:12;;;;;;;10.68;4.15;;;;;;;7.80;100.00;101756.53;5092922;28;20020;-76
2024/03/19 02:18:38;;;;;;;10.52;4.43;;;;;;;7.85;100.00;101757.06;5093270;28;20020;-75
2024/03/19 02:21:03;;;;;;;9.60;4.28;;;;;;;7.81;100.00;101756.44;5092895;28;20016;-75
2024/03/19 02:23:28;;;;;;;8.32;3.63;;;;;;;7.81;100.00;101758.19;5075184;28;20464;-74
2024/03/19 02:25:54;;;;;;;10.10;4.18;;;;;;;7.82;100.00;101757.25;5092944;28;20121;-74
2024/03/19 02:28:19;;;;;;;12.65;4.38;;;;;;;7.78;100.00;101748.69;5092782;28;20027;-75
2024/03/19 02:30:44;;;;;;;10.18;3.38;;;;;;;7.76;100.00;101751.44;5092890;28;20020;-74
2024/03/19 02:33:10;;;;;;;12.10;4.30;;;;;;;7.75;100.00;101752.38;5092780;28;20134;-74
2024/03/19 02:35:35;;;;;;;11.75;4.00;;;;;;;7.76;100.00;101743.47;5092804;28;20024;-74
2024/03/19 02:38:01;;;;;;;8.40;3.67;;;;;;;7.73;100.00;101742.81;5092714;28;20455;-75
2024/03/19 02:40:26;;;;;;;13.30;3.78;;;;;;;7.68;100.00;101740.47;5092749;28;20028;-74
2024/03/19 02:42:51;;;;;;;9.15;3.45;;;;;;;7.62;100.00;101747.97;5075315;28;20031;-75
2024/03/19 02:45:17;;;;;;;11.85;4.35;;;;;;;7.51;100.00;101743.31;5092574;28;20023;-74
2024/03/19 02:47:43;;;;;;;13.48;3.88;;;;;;;7.40;100.00;101736.06;5074485;28;20027;-74
2024/03/19 02:50:08;;;;;;;12.63;3.97;;;;;;;7.32;100.00;101739.19;5093040;28;20031;-76
2024/03/19 02:52:33;;;;;;;10.73;3.50;;;;;;;7.27;100.00;101738.66;5092904;28;20039;-74
2024/03/19 02:54:59;;;;;;;11.23;4.03;;;;;;;7.27;100.00;101737.78;5092618;28;20024;-74
2024/03/19 02:57:24;;;;;;;8.75;4.05;;;;;;;7.24;100.00;101736.19;5092697;28;20353;-74
2024/03/19 02:59:49;;;;;;;12.10;4.22;;;;;;;7.15;100.00;101742.91;5092542;28;20051;-76
2024/03/19 03:02:14;;;;;;;11.90;4.70;;;;;;;7.10;100.00;101739.66;5074395;28;20028;-75
2024/03/19 03:04:40;;;;;;;18.88;4.53;;;;;;;7.09;100.00;101737.13;5095966;28;20467;-75
2024/03/19 03:07:05;;;;;;;13.00;4.13;;;;;;;7.12;100.00;101735.16;5096270;28;20480;-75
2024/03/19 03:09:31;;;;;;;6.93;3.55;;;;;;;7.16;100.00;101741.94;5096883;28;20020;-75
2024/03/19 03:11:56;;;;;;;9.80;3.63;;;;;;;7.23;100.00;101747.72;5096270;28;20085;-74
2024/03/19 03:14:21;;;;;;;9.77;4.05;;;;;;;7.29;100.00;101741.19;5096662;28;20020;-76
2024/03/19 03:16:47;;;;;;;8.93;3.88;;;;;;;7.36;100.00;101750.44;5096160;28;20024;-76
2024/03/19 03:19:13;;;;;;;15.68;4.20;;;;;;;7.41;100.00;101751.00;5096554;28;20107;-76
2024/03/19 03:21:38;;;;;;;9.85;4.28;;;;;;;7.46;100.00;101746.25;5096293;28;20038;-75
2024/03/19 03:24:04;;;;;;;9.63;3.90;;;;;;;7.48;100.00;101754.97;5096260;28;20028;-76
2024/03/19 03:26:29;;;;;;;9.50;4.15;;;;;;;7.51;100.00;101753.91;5095946;28;20027;-75
2024/03/19 03:28:55;;;;;;;7.95;4.18;;;;;;;7.51;100.00;101759.22;5095960;28;20024;-76
2024/03/19 03:31:20;;;;;;;10.20;4.15;;;;;;;7.52;100.00;101764.41;5096021;28;20074;-76
2024/03/19 03:33:45;;;;;;;14.27;4.72;;;;;;;7.56;100.00;101765.09;5096330;28;20072;-76
2024/03/19 03:36:10;;;;;;;9.27;3.92;;;;;;;7.62;100.00;101764.69;5095951;28;20168;-76
2024/03/19 03:38:36;;;;;;;9.52;4.15;;;;;;;7.69;100.00;101770.47;5095738;28;20421;-76
2024/03/19 03:41:07;;;;;;;9.90;4.22;;;;;;;7.72;100.00;101765.81;5095735;28;20542;-75
2024/03/19 03:43:33;;;;;;;14.35;4.35;;;;;;;7.77;100.00;101770.81;5095914;28;20034;-76
2024/03/19 03:45:58;;;;;;;10.18;4.28;;;;;;;7.77;100.00;101771.66;5095559;28;20103;-76
2024/03/19 03:48:23;;;;;;;12.15;3.90;;;;;;;7.80;100.00;101762.66;5095480;28;20028;-76
2024/03/19 03:50:49;;;;;;;13.68;5.10;;;;;;;7.85;100.00;101771.19;5095496;28;20015;-76
2024/03/19 03:53:14;;;;;;;6.88;3.95;;;;;;;7.88;100.00;101771.00;5095409;28;20065;-76
2024/03/19 03:55:39;;;;;;;14.65;4.15;;;;;;;7.89;100.00;101766.53;5095593;28;20069;-76
2024/03/19 03:58:05;;;;;;;12.05;3.97;;;;;;;7.90;100.00;101765.59;5095355;28;20387;-76
2024/03/19 04:00:32;;;;;;;9.55;4.60;;;;;;;7.92;100.00;101768.97;5095420;28;20028;-77
2024/03/19 04:02:58;;;;;;;13.70;4.25;;;;;;;7.92;100.00;101764.50;5095470;28;20074;-76
2024/03/19 04:05:24;;;;;;;13.32;3.92;;;;;;;7.93;100.00;101768.88;5095066;28;20020;-75
2024/03/19 04:07:49;;;;;;;10.85;4.30;;;;;;;7.94;100.00;101770.59;5095678;28;20051;-75
2024/03/19 04:10:16;;;;;;;10.48;3.80;;;;;;;7.92;100.00;101775.13;5077005;28;20064;-76
2024/03/19 04:12:43;;;;;;;15.02;4.22;;;;;;;7.93;100.00;101770.69;5094847;28;20040;-76
2024/03/19 04:15:11;;;;;;;18.58;5.20;;;;;;;7.93;100.00;101771.53;5076569;28;20424;-75
2024/03/19 04:17:37;;;;;;;8.55;4.18;;;;;;;7.94;100.00;101769.72;5095130;28;20366;-75
2024/03/19 04:20:06;;;;;;;11.07;4.13;;;;;;;7.92;100.00;101772.47;5076870;28;20020;-75
2024/03/19 04:22:33;;;;;;;5.45;3.63;;;;;;;7.93;100.00;101778.63;5094709;28;20035;-76
2024/03/19 04:24:59;;;;;;;13.20;3.70;;;;;;;7.95;100.00;101777.56;5094878;28;20058;-75
2024/03/19 04:27:24;;;;;;;9.50;3.90;;;;;;;7.99;100.00;101772.09;5076562;28;20028;-75
2024/03/19 04:29:50;;;;;;;8.23;3.50;;;;;;;8.00;100.00;101772.00;5094676;28;20020;-75
2024/03/19 04:32:15;;;;;;;10.65;4.05;;;;;;;8.02;100.00;101771.91;5094876;28;20048;-76
2024/03/19 04:34:41;;;;;;;8.63;3.60;;;;;;;8.02;100.00;101770.09;5094915;28;20027;-75
2024/03/19 04:37:07;;;;;;;10.75;4.20;;;;;;;8.05;100.00;101777.00;5094820;28;20071;-75
2024/03/19 04:39:32;;;;;;;7.03;3.97;;;;;;;8.07;100.00;101772.44;5094483;28;20028;-76
2024/03/19 04:41:57;;;;;;;12.65;4.20;;;;;;;8.13;100.00;101777.31;5094327;28;20119;-75
2024/03/19 04:44:23;;;;;;;13.20;4.45;;;;;;;8.16;100.00;101774.47;5076489;28;20035;-76
2024/03/19 04:46:48;;;;;;;8.43;3.45;;;;;;;8.17;100.00;101781.50;5094373;28;20032;-76
2024/03/19 04:49:14;;;;;;;9.90;3.50;;;;;;;8.19;100.00;101779.56;5094857;28;20024;-75
2024/03/19 04:51:39;;;;;;;9.88;3.85;;;;;;;8.22;100.00;101781.19;5094520;28;20024;-75
2024/03/19 04:54:05;;;;;;;7.05;4.00;;;;;;;8.24;100.00;101784.56;5094524;28;20371;-74
2024/03/19 04:56:30;;;;;;;7.47;4.53;;;;;;;8.28;100.00;101779.00;5094130;28;20020;-77
2024/03/19 04:58:55;;;;;;;10.57;4.05;;;;;;;8.31;100.00;101775.28;5094154;28;20149;-76
2024/03/19 05:01:21;;;;;;;9.93;4.35;;;;;;;8.33;100.00;101775.16;5093917;28;20062;-74
2024/03/19 05:03:46;;;;;;;7.20;4.07;;;;;;;8.34;100.00;101772.41;5075972;28;20376;-73
2024/03/19 05:06:12;;;;;;;9.32;3.90;;;;;;;8.34;100.00;101769.75;5094340;28;20460;-75
2024/03/19 05:08:38;;;;;;;10.18;4.00;;;;;;;8.35;100.00;101766.16;5094301;28;20461;-75
2024/03/19 05:11:04;;;;;;;9.50;4.25;;;;;;;8.35;100.00;101768.81;5093994;28;20024;-75
2024/03/19 05:13:30;;;;;;;12.40;4.28;;;;;;;8.36;100.00;101761.69;5093701;28;20044;-75
2024/03/19 05:15:55;;;;;;;12.25;4.43;;;;;;;8.36;100.00;101765.22;5093832;28;20024;-75
2024/03/19 05:18:21;;;;;;;8.18;3.60;;;;;;;8.37;100.00;101771.38;5093784;28;20107;-75
2024/03/19 05:20:47;;;;;;;11.88;4.28;;;;;;;8.38;100.00;101765.97;5093850;28;20028;-74
2024/03/19 05:23:12;;;;;;;8.73;3.65;;;;;;;8.40;100.00;101772.00;5093903;28;20073;-74
2024/03/19 05:25:38;;;;;;;6.93;3.78;;;;;;;8.43;100.00;101782.44;5093162;28;20464;-75
2024/03/19 05:28:03;;;;;;;9.27;3.50;;;;;;;8.43;100.00;101779.78;5093542;28;20024;-74
2024/03/19 05:30:30;;;;;;;10.02;4.13;;;;;;;8.45;100.00;101780.56;5093799;28;20110;-75
2024/03/19 05:32:56;;;;;;;7.63;3.67;;;;;;;8.45;100.00;101785.84;5093609;28;20341;-75
2024/03/19 05:35:21;;;;;;;8.05;3.45;;;;;;;8.48;100.00;101782.16;5093909;28;20026;-75
2024/03/19 05:37:47;;;;;;;10.27;3.60;;;;;;;8.47;100.00;101781.28;5093510;28;20028;-76
2024/03/19 05:40:12;;;;;;;8.57;3.45;;;;;;;8.46;100.00;101784.03;5093420;28;20484;-77
2024/03/19 05:42:38;;;;;;;8.25;3.10;;;;;;;8.47;100.00;101783.09;5093605;28;20024;-77
2024/03/19 05:45:04;;;;;;;9.45;3.47;;;;;;;8.48;100.00;101787.47;5093427;28;20046;-76
2024/03/19 05:47:31;;;;;;;8.55;3.25;;;;;;;8.47;100.00;101791.06;5093289;28;20031;-76
2024/03/19 05:49:56;;;;;;;5.05;3.22;;;;;;;8.46;100.00;101787.56;5093617;28;20027;-75
2024/03/19 05:52:22;;;;;;;10.02;3.95;;;;;;;8.44;100.00;101788.59;5093206;28;20099;-75
2024/03/19 05:54:47;;;;;;;12.07;3.50;;;;;;;8.43;100.00;101787.75;5093182;28;20031;-77
2024/03/19 05:57:12;;;;;;;7.10;3.28;;;;;;;8.43;100.00;101795.69;5093245;28;20597;-76
2024/03/19 05:59:39;;;;;;;10.20;3.65;;;;;;;8.43;100.00;101798.34;5093298;28;20024;-76
2024/03/19 06:02:06;;;;;;;8.68;4.07;;;;;;;8.43;100.00;101798.34;5093047;28;20031;-76
2024/03/19 06:04:32;;;;;;;9.07;3.42;;;;;;;8.43;100.00;101801.00;5093343;28;20028;-77
2024/03/19 06:06:57;;;;;;;16.75;3.80;;;;;;;8.42;100.00;101799.28;5093194;28;20363;-77
2024/03/19 06:09:22;;;;;;;11.93;4.05;;;;;;;8.42;100.00;101804.59;5074884;28;20082;-76
2024/03/19 06:11:48;;;;;;;8.82;3.40;;;;;;;8.44;100.00;101807.19;5093231;28;20123;-76
2024/03/19 06:14:14;;;;;;;8.45;4.22;;;;;;;8.43;100.00;101797.47;5093020;28;20046;-76
2024/03/19 06:16:40;;;;;;;10.23;3.88;;;;;;;8.46;100.00;101798.16;5092915;28;20028;-76
2024/03/19 06:19:05;;;;;;;9.82;4.07;;;;;;;8.50;100.00;101796.16;5092994;28;20039;-76
2024/03/19 06:21:30;;;;;;;9.30;4.40;;;;;;;8.56;100.00;101803.69;5092809;28;20367;-77
2024/03/19 06:23:56;;;;;;;13.98;3.83;;;;;;;8.60;100.00;101799.91;5092924;28;20461;-76
2024/03/19 06:26:21;;;;;;;9.65;4.32;;;;;;;8.64;100.00;101793.44;5092940;28;20018;-75
2024/03/19 06:28:46;;;;;;;10.88;4.30;;;;;;;8.68;100.00;101796.72;5093091;28;20066;-76
2024/03/19 06:31:12;;;;;;;14.23;4.35;;;;;;;8.72;100.00;101800.88;5092801;28;20020;-75
2024/03/19 06:33:37;;;;;;;11.27;4.10;;;;;;;8.75;100.00;101798.00;5093304;28;20455;-75
2024/03/19 06:36:03;;;;;;;8.90;4.57;;;;;;;8.77;100.00;101804.06;5092752;28;20162;-76
2024/03/19 06:38:28;;;;;;;15.75;5.18;;;;;;;8.78;100.00;101797.81;5096279;28;20028;-76
2024/03/19 06:40:54;;;;;;;12.75;4.68;;;;;;;8.82;100.00;101801.97;5096485;28;20177;-77
2024/03/19 06:43:19;;;;;;;9.23;4.25;;;;;;;8.86;100.00;101802.59;5096442;28;20116;-77
2024/03/19 06:45:45;;;;;;;10.93;3.97;;;;;;;8.88;100.00;101802.47;5096643;28;20050;-78
2024/03/19 06:48:11;;;;;;;10.98;4.50;;;;;;;8.91;100.00;101808.44;5096626;28;20024;-77
2024/03/19 06:50:36;;;;;;;11.60;4.68;;;;;;;8.95;100.00;101814.38;5096293;28;20031;-79
2024/03/19 06:53:01;;;;;;;8.63;4.45;;;;;;;9.02;100.00;101818.31;5096129;28;20012;-78
2024/03/19 06:55:27;;;;;;;12.63;4.78;;;;;;;9.11;100.00;101808.88;5096467;28;20035;-77
2024/03/19 06:57:52;;;;;;;8.57;4.07;;;;;;;9.18;100.00;101807.47;5078136;28;20055;-77
2024/03/19 07:00:19;;;;;;;12.93;4.82;;;;;;;9.22;100.00;101810.78;5096262;28;20398;-75
2024/03/19 07:02:46;;;;;;;11.23;4.80;;;;;;;9.21;100.00;101807.28;5096269;28;20028;-75
2024/03/19 07:05:12;;;;;;;11.00;4.50;;;;;;;9.22;100.00;101802.81;5078170;28;20049;-75
2024/03/19 07:07:38;;;;;;;11.93;4.10;;;;;;;9.20;100.00;101800.28;5096758;28;20024;-76
2024/03/19 07:10:04;;;;;;;13.63;4.50;;;;;;;9.21;100.00;101806.44;5096550;28;20024;-75
2024/03/19 07:12:29;;;;;;;15.35;4.30;;;;;;;9.21;100.00;101809.09;5096072;28;20522;-75
2024/03/19 07:14:57;;;;;;;9.75;4.20;;;;;;;9.21;100.00;101809.94;5096254;28;20020;-75
2024/03/19 07:17:23;;;;;;;15.30;5.03;;;;;;;9.22;100.00;101818.75;5096316;28;20024;-75
2024/03/19 07:19:49;;;;;;;13.70;4.05;;;;;;;9.22;100.00;101811.63;5096704;28;20376;-76
2024/03/19 07:22:15;;;;;;;14.02;4.30;;;;;;;9.23;100.00;101820.47;5096088;28;20024;-75
2024/03/19 07:24:40;;;;;;;12.13;4.22;;;;;;;9.24;100.00;101809.72;5095928;28;20043;-76
2024/03/19 07:27:06;;;;;;;13.10;4.05;;;;;;;9.25;100.00;101811.41;5095944;28;20020;-76
2024/03/19 07:29:32;;;;;;;8.60;4.30;;;;;;;9.29;100.00;101812.06;5096026;28;20020;-76
2024/03/19 07:31:57;;;;;;;12.50;4.32;;;;;;;9.33;100.00;101813.53;5095836;28;20020;-76
2024/03/19 07:34:22;;;;;;;10.70;4.38;;;;;;;9.36;100.00;101813.34;5077660;28;20032;-76
2024/03/19 07:36:48;;;;;;;13.10;4.25;;;;;;;9.42;100.00;101822.66;5095651;28;20090;-76
2024/03/19 07:39:13;;;;;;;17.40;4.90;;;;;;;9.45;100.00;101820.66;5077774;28;20031;-76
2024/03/19 07:41:39;;;;;;;10.10;4.38;;;;;;;9.49;100.00;101822.16;5095861;28;20176;-78
2024/03/19 07:44:05;;;;;;;10.07;4.28;;;;;;;9.53;100.00;101820.94;5095614;28;20107;-76
2024/03/19 07:46:30;;;;;;;9.30;4.03;;;;;;;9.57;100.00;101813.63;5095860;28;20031;-76
2024/03/19 07:48:55;;;;;;;12.55;5.43;;;;;;;9.60;100.00;101816.06;5094746;28;20020;-76
2024/03/19 07:51:21;;;;;;;15.13;4.38;;;;;;;9.63;100.00;101818.50;5095511;28;20158;-76
2024/03/19 07:53:46;;;;;;;13.75;3.80;;;;;;;9.67;100.00;101813.81;5095805;28;20051;-76
2024/03/19 07:56:11;;;;;;;14.57;4.13;;;;;;;9.71;100.00;101804.66;5095718;28;20039;-76
2024/03/19 07:58:37;;;;;;;10.68;3.67;;;;;;;9.77;100.00;101808.69;5095699;28;20036;-76
2024/03/19 08:01:02;;;;;;;6.43;3.95;;;;;;;9.84;100.00;101810.81;5095484;28;20073;-76
2024/03/19 08:03:28;;;;;;;9.98;3.72;;;;;;;9.93;100.00;101805.75;5095246;28;20109;-76
2024/03/19 08:05:59;;;;;;;6.70;3.78;;;;;;;10.00;100.00;101804.38;5095244;28;20367;-76
2024/03/19 08:08:24;;;;;;;;;;;;;;;10.07;100.00;101803.81;5095603;28;20020;-76
2024/03/19 08:10:50;;;;;;;12.35;4.00;;;;;;;10.14;100.00;101804.22;5095364;28;20010;-76
2024/03/19 08:13:15;;;;;;;7.38;3.38;;;;;;;10.22;100.00;101817.78;5095021;28;20072;-76
2024/03/19 08:15:41;;;;;;;11.65;3.60;;;;;;;10.26;100.00;101812.28;5095352;28;20050;-76
2024/03/19 08:18:08;;;;;;;8.20;3.50;;;;;;;10.29;100.00;101820.84;5095179;28;20091;-76
2024/03/19 08:20:35;;;;;;;10.85;3.70;;;;;;;10.33;100.00;101818.81;5095027;28;20107;-76
2024/03/19 08:23:04;;;;;;;7.80;3.95;;;;;;;10.40;100.00;101828.06;5094785;28;20455;-77
2024/03/19 08:25:31;;;;;;;7.25;3.40;;;;;;;10.45;100.00;101820.63;5094900;28;20032;-77
2024/03/19 08:27:56;;;;;;;8.52;3.45;;;;;;;10.48;100.00;101824.84;5095132;28;20020;-77
2024/03/19 08:30:22;;;;;;;6.65;3.30;;;;;;;10.52;100.00;101826.31;5094986;28;20026;-77
2024/03/19 08:32:47;;;;;;;7.15;2.78;;;;;;;10.62;100.00;101826.47;5094770;28;20055;-77
2024/03/19 08:35:14;;;;;;;5.40;2.83;;;;;;;10.72;100.00;101824.81;5094743;28;20035;-77
2024/03/19 08:37:40;;;;;;;7.25;2.70;;;;;;;10.82;100.00;101832.94;5094933;28;20036;-77
2024/03/19 08:40:06;;;;;;;10.75;3.38;;;;;;;10.92;100.00;101817.97;5094529;28;20459;-77
2024/03/19 08:42:33;;;;;;;8.68;3.03;;;;;;;10.93;100.00;101833.00;5094734;28;20020;-75
2024/03/19 08:44:59;;;;;;;5.90;2.75;;;;;;;11.00;100.00;101825.38;5094774;28;20049;-74
2024/03/19 08:47:24;;;;;;;7.57;2.80;;;;;;;11.05;100.00;101823.22;5095052;28;20103;-75
2024/03/19 08:49:50;;;;;;;10.45;3.55;;;;;;;11.18;100.00;101828.44;5094775;28;20067;-76
2024/03/19 08:52:16;;;;;;;10.27;3.47;;;;;;;11.34;100.00;101823.59;5095046;28;20028;-75
2024/03/19 08:54:41;;;;;;;7.95;3.15;;;;;;;11.49;100.00;101824.22;5076342;28;20027;-76
2024/03/19 08:57:07;;;;;;;14.25;3.67;;;;;;;11.69;100.00;101827.09;5094302;28;20028;-75
2024/03/19 08:59:33;;;;;;;10.05;2.90;;;;;;;11.90;100.00;101828.06;5094539;28;20024;-75
2024/03/19 09:01:58;;;;;;;12.95;3.38;;;;;;;12.09;100.00;101830.13;5058279;28;20061;-75
2024/03/19 09:04:24;;;;;;;9.43;3.47;;;;;;;12.41;100.00;101828.47;5076421;28;20031;-75
2024/03/19 09:06:49;;;;;;;8.73;3.58;;;;;;;12.64;100.00;101835.38;5094145;28;20564;-78
2024/03/19 09:09:15;;;;;;;7.65;3.40;;;;;;;12.83;100.00;101834.69;5094091;28;20102;-75
2024/03/19 09:11:40;;;;;;;6.05;2.97;;;;;;;12.86;100.00;101833.59;5093765;28;20056;-75
2024/03/19 09:14:06;;;;;;;9.05;3.40;;;;;;;12.90;100.00;101831.50;5094031;28;20032;-75
2024/03/19 09:16:31;;;;;;;7.30;3.60;;;;;;;12.93;100.00;101833.91;5093852;28;20020;-75
2024/03/19 09:18:56;;;;;;;7.75;3.28;;;;;;;13.07;100.00;101838.09;5075742;28;20051;-76
2024/03/19 09:21:22;;;;;;;7.05;3.40;;;;;;;13.20;100.00;101830.72;5093846;28;20056;-76
2024/03/19 09:23:47;;;;;;;10.98;3.63;;;;;;;13.29;100.00;101824.56;5093874;28;20073;-75
2024/03/19 09:26:12;;;;;;;5.07;2.90;;;;;;;13.49;100.00;101825.53;5093989;28;20028;-75
2024/03/19 09:28:38;;;;;;;9.70;3.50;;;;;;;13.72;100.00;101826.19;5093648;28;20456;-75
2024/03/19 09:31:03;;;;;;;9.77;3.33;;;;;;;13.70;100.00;101822.81;5093654;28;20047;-76
2024/03/19 09:33:29;;;;;;;9.70;3.22;;;;;;;14.11;100.00;101818.25;5094040;28;20032;-76
2024/03/19 09:35:55;;;;;;;7.38;3.17;;;;;;;15.47;100.00;101821.78;5093592;28;20028;-79
2024/03/19 09:38:21;;;;;;;7.68;3.30;;;;;;;17.00;100.00;101828.25;5093912;28;20020;-77
2024/03/19 09:41:06;;;;;;;11.43;2.90;;;;;;;18.35;100.00;101830.34;5093572;28;20059;-77
2024/03/19 09:43:35;;;;;;;7.25;2.95;;;;;;;18.63;100.00;101823.66;5093011;28;20141;-80
2024/03/19 09:46:02;;;;;;;9.95;3.00;;;;;;;18.65;100.00;101827.00;5093679;28;20068;-78
2024/03/19 09:48:27;;;;;;;6.00;2.85;;;;;;;19.25;100.00;101816.03;5075778;28;20027;-78
2024/03/19 09:50:53;;;;;;;9.50;2.65;;;;;;;18.97;100.00;101827.19;5093845;28;20023;-78
2024/03/19 09:53:20;;;;;;;10.00;2.83;;;;;;;18.03;100.00;101822.03;5093556;28;20460;-78
2024/03/19 09:55:49;;;;;;;11.98;3.05;;;;;;;17.53;100.00;101834.47;5093402;28;20020;-78
2024/03/19 09:58:15;;;;;;;10.63;3.05;;;;;;;16.95;100.00;101830.56;5075787;28;20149;-76
2024/03/19 10:00:47;;;;;;;15.23;3.65;;;;;;;17.17;100.00;101823.84;5093527;28;20431;-77
2024/03/19 10:03:13;;;;;;;9.40;3.45;;;;;;;17.14;100.00;101832.22;5093085;28;20012;-77
2024/03/19 10:05:39;;;;;;;13.52;3.00;;;;;;;17.09;100.00;101831.84;5093490;28;20024;-77
2024/03/19 10:08:06;;;;;;;6.85;2.80;;;;;;;17.48;100.00;101835.94;5093393;28;20024;-77
2024/03/19 10:10:35;;;;;;;14.23;3.25;;;;;;;17.40;100.00;101834.88;5093130;28;20028;-77
2024/03/19 10:13:00;;;;;;;8.52;2.97;;;;;;;17.18;100.00;101841.66;5092584;28;20093;-79
2024/03/19 10:15:27;;;;;;;10.40;2.95;;;;;;;16.69;100.00;101835.88;5093293;28;20020;-77
2024/03/19 10:17:53;;;;;;;8.10;2.70;;;;;;;16.54;100.00;101833.75;5093164;28;20035;-76
2024/03/19 10:20:18;;;;;;;9.55;3.17;;;;;;;16.13;100.00;101845.94;5093510;28;20016;-75
2024/03/19 10:22:45;;;;;;;8.40;2.70;;;;;;;15.98;100.00;101842.91;5093054;28;20195;-79
2024/03/19 10:25:14;;;;;;;12.27;3.58;;;;;;;16.00;100.00;101841.78;5092896;28;20510;-78
2024/03/19 10:27:43;;;;;;;12.20;2.90;;;;;;;16.09;100.00;101848.06;5093046;28;20020;-77
2024/03/19 10:30:17;;;;;;;10.13;3.25;;;;;;;16.33;100.00;101836.75;5092942;28;20087;-77
2024/03/19 10:32:44;;;;;;;12.07;2.58;;;;;;;16.04;100.00;101842.31;5092973;28;20094;-78
2024/03/19 10:35:21;;;;;;;10.60;3.30;;;;;;;16.00;100.00;101827.50;5092787;28;20035;-77
2024/03/19 10:37:51;;;;;;;8.60;2.40;;;;;;;15.58;100.00;101828.81;5074888;28;20016;-76
2024/03/19 10:40:18;;;;;;;10.23;2.50;;;;;;;15.57;100.00;101831.63;5092926;28;20020;-76
2024/03/19 10:42:44;;;;;;;7.68;2.85;;;;;;;16.41;100.00;101830.59;5093138;28;20020;-75
2024/03/19 10:45:21;;;;;;;8.35;2.42;;;;;;;18.61;100.00;101830.22;5092706;28;20059;-76
2024/03/19 10:47:51;;;;;;;11.98;2.65;;;;;;;20.36;100.00;101833.91;5074650;28;20375;-76
2024/03/19 10:50:18;;;;;;;9.55;2.40;;;;;;;21.54;100.00;101828.09;5093084;28;20341;-77
2024/03/19 10:52:51;;;;;;;8.73;2.50;;;;;;;21.18;100.00;101836.94;5092887;28;20537;-74
2024/03/19 10:55:18;;;;;;;12.15;3.13;;;;;;;20.66;100.00;101830.47;5074710;28;20027;-75
2024/03/19 10:57:45;;;;;;;9.57;2.45;;;;;;;20.48;100.00;101831.63;5092706;28;20043;-73
2024/03/19 11:00:31;;;;;;;7.55;2.40;;;;;;;21.30;100.00;101835.44;5092625;28;20028;-75
2024/03/19 11:03:00;;;;;;;9.45;2.60;;;;;;;21.95;100.00;101833.00;5092441;28;20118;-76
2024/03/19 11:05:26;;;;;;;8.00;2.50;;;;;;;22.76;100.00;101824.63;5092762;28;20085;-76
2024/03/19 11:07:54;;;;;;;15.68;2.58;;;;;;;23.21;100.00;101825.22;5074435;28;20109;-74
2024/03/19 11:10:35;;;;;;;6.88;2.15;;;;;;;22.45;100.00;101842.13;5092797;28;20024;-74
2024/03/19 11:13:33;;;;;;;9.77;2.78;;;;;;;20.82;100.00;101824.94;5092633;28;20535;-74
2024/03/19 11:15:59;;;;;;;7.55;2.70;;;;;;;21.52;100.00;101833.69;5082763;28;20020;-73